Time;durP1;ratioP1;P1;durP2;ratioP2;P2;SDS_P1;SDS_P2;PMS_P1;PMS_P2;Temp;Humidity;BMP_temperature;BMP_pressure;BME280_temperature;BME280_humidity;BME280_pressure;Samples;Min_cycle;Max_cycle;Signal;HPM_P1;HPM_P2
2023/04/21 00:00:12;;;;;;;3.60;3.25;;;19.20;53.20;;;;;;5007930;28;20652;-68
2023/04/21 00:02:40;;;;;;;3.55;3.25;;;19.30;53.20;;;;;;5017549;28;20194;-68
2023/04/21 00:05:09;;;;;;;3.30;3.00;;;19.30;53.30;;;;;;5016388;28;20262;-68
2023/04/21 00:07:39;;;;;;;3.30;3.00;;;19.20;53.20;;;;;;5025809;28;20195;-68
2023/04/21 00:10:09;;;;;;;3.38;3.08;;;19.20;53.20;;;;;;5002168;28;20189;-68
2023/04/21 00:12:35;;;;;;;3.50;3.20;;;19.30;53.30;;;;;;5008609;28;21085;-68
2023/04/21 00:15:02;;;;;;;3.67;3.38;;;19.30;53.20;;;;;;5007103;28;20184;-68
2023/04/21 00:17:28;;;;;;;3.20;2.90;;;19.30;53.30;;;;;;5005915;28;20255;-68
2023/04/21 00:19:54;;;;;;;3.55;3.28;;;19.20;53.20;;;;;;5018485;28;20188;-68
2023/04/21 00:22:20;;;;;;;3.10;2.90;;;19.20;53.20;;;;;;4995868;28;20192;-68
2023/04/21 00:24:46;;;;;;;2.90;2.70;;;19.30;53.30;;;;;;5023934;28;20191;-68
2023/04/21 00:27:14;;;;;;;3.58;3.08;;;19.30;53.30;;;;;;5000070;28;20247;-68
2023/04/21 00:29:40;;;;;;;2.88;2.67;;;19.30;53.20;;;;;;4987738;28;20711;-68
2023/04/21 00:32:08;;;;;;;2.83;2.63;;;19.30;53.30;;;;;;5015204;28;20231;-68
2023/04/21 00:34:35;;;;;;;2.95;2.65;;;19.20;53.20;;;;;;4998685;28;20184;-68
2023/04/21 00:37:01;;;;;;;2.78;2.58;;;19.30;53.20;;;;;;5039429;28;20210;-69
2023/04/21 00:39:27;;;;;;;3.10;2.90;;;19.30;53.30;;;;;;4995462;28;20276;-69
2023/04/21 00:41:52;;;;;;;3.03;2.83;;;19.30;53.20;;;;;;4990563;28;20185;-69
2023/04/21 00:44:18;;;;;;;3.00;2.80;;;19.30;53.20;;;;;;5000164;28;20190;-68
2023/04/21 00:46:44;;;;;;;3.03;2.83;;;19.30;53.20;;;;;;4991969;28;20571;-69
2023/04/21 00:49:12;;;;;;;2.78;2.55;;;19.30;53.20;;;;;;5007455;28;20662;-69
2023/04/21 00:51:38;;;;;;;3.30;3.00;;;19.30;53.20;;;;;;4998307;28;20213;-69
2023/04/21 00:54:08;;;;;;;3.33;3.00;;;19.30;53.20;;;;;;4999938;28;20208;-69
2023/04/21 00:56:35;;;;;;;3.35;3.05;;;19.30;53.20;;;;;;5004642;28;20204;-69
2023/04/21 00:59:01;;;;;;;3.20;2.85;;;19.30;53.20;;;;;;5013910;28;20177;-69
2023/04/21 01:01:29;;;;;;;3.20;2.90;;;19.30;53.20;;;;;;5008042;28;20557;-69
2023/04/21 01:03:59;;;;;;;3.28;2.97;;;19.30;53.20;;;;;;5005115;28;20188;-69
2023/04/21 01:06:33;;;;;;;3.50;3.00;;;19.30;53.20;;;;;;5003985;28;20218;-69
2023/04/21 01:09:00;;;;;;;3.30;3.00;;;19.30;53.20;;;;;;4986470;28;20200;-69
2023/04/21 01:11:26;;;;;;;4.30;3.38;;;19.30;53.20;;;;;;5009413;28;20185;-69
2023/04/21 01:13:53;;;;;;;2.72;2.53;;;19.30;53.20;;;;;;5003027;28;20211;-69
2023/04/21 01:16:20;;;;;;;3.38;3.08;;;19.30;53.10;;;;;;5030878;28;20269;-69
2023/04/21 01:18:46;;;;;;;3.22;2.92;;;19.30;53.20;;;;;;5002778;28;20188;-69
2023/04/21 01:21:13;;;;;;;3.13;2.70;;;19.30;53.20;;;;;;5016139;28;20208;-69
2023/04/21 01:23:42;;;;;;;3.00;2.67;;;19.30;53.20;;;;;;4997842;28;20192;-69
2023/04/21 01:26:11;;;;;;;2.88;2.67;;;19.30;53.20;;;;;;4999704;28;20216;-69
2023/04/21 01:28:37;;;;;;;3.72;2.60;;;19.30;53.20;;;;;;5017848;28;20189;-69
2023/04/21 01:31:04;;;;;;;3.38;3.05;;;19.30;53.10;;;;;;4987075;28;20222;-69
2023/04/21 01:33:30;;;;;;;3.03;2.72;;;19.30;53.10;;;;;;5027543;28;20265;-69
2023/04/21 01:35:57;;;;;;;3.20;2.90;;;19.30;53.20;;;;;;5000901;28;20287;-69
2023/04/21 01:38:23;;;;;;;3.15;2.85;;;19.30;53.10;;;;;;5010329;28;20214;-69
2023/04/21 01:40:52;;;;;;;3.55;3.25;;;19.20;53.00;;;;;;5003822;28;20176;-69
2023/04/21 01:43:23;;;;;;;3.20;2.72;;;19.30;53.10;;;;;;4998009;28;20194;-68
2023/04/21 01:45:49;;;;;;;3.38;3.00;;;19.30;53.10;;;;;;5000167;28;20252;-69
2023/04/21 01:48:15;;;;;;;3.20;2.92;;;19.30;53.10;;;;;;5008653;28;20250;-69
2023/04/21 01:50:41;;;;;;;2.75;2.55;;;19.30;53.10;;;;;;5011905;28;20189;-69
2023/04/21 01:53:09;;;;;;;2.97;2.78;;;19.30;53.10;;;;;;4994195;28;20231;-69
2023/04/21 01:55:34;;;;;;;3.00;2.65;;;19.30;53.30;;;;;;4988240;28;20247;-69
2023/04/21 01:58:00;;;;;;;3.15;2.85;;;19.30;53.10;;;;;;4989540;28;20283;-69
2023/04/21 02:00:26;;;;;;;3.08;2.78;;;19.30;53.10;;;;;;5009924;28;20184;-69
2023/04/21 02:02:52;;;;;;;2.60;2.40;;;19.30;53.10;;;;;;5014615;28;20691;-67
2023/04/21 02:05:18;;;;;;;2.60;2.40;;;19.30;53.10;;;;;;5014970;28;20307;-69
2023/04/21 02:07:45;;;;;;;3.05;2.50;;;19.30;53.10;;;;;;5000638;28;20192;-69
2023/04/21 02:10:11;;;;;;;2.42;2.22;;;19.30;53.10;;;;;;4998296;28;20310;-69
2023/04/21 02:12:37;;;;;;;2.60;2.40;;;19.30;53.10;;;;;;4997021;28;20211;-68
2023/04/21 02:15:04;;;;;;;2.63;2.42;;;19.30;53.10;;;;;;5002958;28;20188;-69
2023/04/21 02:17:30;;;;;;;2.47;2.28;;;19.30;53.10;;;;;;5012364;28;20184;-69
2023/04/21 02:19:56;;;;;;;2.50;2.30;;;19.30;53.10;;;;;;5007560;28;20195;-69
2023/04/21 02:22:22;;;;;;;2.72;2.38;;;19.30;53.10;;;;;;5014196;28;20184;-69
2023/04/21 02:24:49;;;;;;;2.28;2.08;;;19.30;53.10;;;;;;5022379;28;20184;-68
2023/04/21 02:27:15;;;;;;;2.60;2.40;;;19.30;53.10;;;;;;5010904;28;20574;-69
2023/04/21 02:29:41;;;;;;;2.53;2.33;;;19.30;53.00;;;;;;5002771;28;20183;-69
2023/04/21 02:32:07;;;;;;;2.70;2.50;;;19.30;53.00;;;;;;4989860;28;20288;-68
2023/04/21 02:34:33;;;;;;;2.95;2.38;;;19.30;53.00;;;;;;5010776;28;20271;-67
2023/04/21 02:36:59;;;;;;;2.38;2.17;;;19.30;53.10;;;;;;4991331;28;20303;-68
2023/04/21 02:39:25;;;;;;;2.45;2.25;;;19.30;53.10;;;;;;5005684;28;20180;-69
2023/04/21 02:41:51;;;;;;;2.22;1.90;;;19.30;53.00;;;;;;4986172;28;20284;-69
2023/04/21 02:44:17;;;;;;;3.17;2.28;;;19.30;53.10;;;;;;5000756;28;20246;-69
2023/04/21 02:46:43;;;;;;;2.33;2.13;;;19.30;53.00;;;;;;4995349;28;20216;-69
2023/04/21 02:49:09;;;;;;;2.20;2.00;;;19.30;53.10;;;;;;4988980;28;20188;-69
2023/04/21 02:51:36;;;;;;;2.25;2.05;;;19.30;53.00;;;;;;5010646;28;20199;-69
2023/04/21 02:54:02;;;;;;;2.45;2.25;;;19.30;53.00;;;;;;4993909;28;20253;-69
2023/04/21 02:56:28;;;;;;;1.98;1.88;;;19.30;53.60;;;;;;4993947;28;20215;-69
2023/04/21 02:58:54;;;;;;;2.10;1.90;;;19.30;53.00;;;;;;5018720;28;20189;-69
2023/04/21 03:01:19;;;;;;;2.22;2.05;;;19.30;53.00;;;;;;5009727;28;20203;-69
2023/04/21 03:03:45;;;;;;;2.22;2.03;;;19.30;53.00;;;;;;4980980;28;20184;-69
2023/04/21 03:06:11;;;;;;;2.30;2.10;;;19.30;53.00;;;;;;5005442;28;20223;-69
2023/04/21 03:08:38;;;;;;;1.80;1.70;;;19.30;53.00;;;;;;5004952;28;20180;-68
2023/04/21 03:11:05;;;;;;;2.38;2.17;;;19.30;52.90;;;;;;4994006;28;20196;-69
2023/04/21 03:13:30;;;;;;;2.10;1.90;;;19.30;52.90;;;;;;5010781;28;20205;-69
2023/04/21 03:15:56;;;;;;;2.03;1.88;;;19.30;52.90;;;;;;5005281;28;20212;-68
2023/04/21 03:18:22;;;;;;;2.10;1.92;;;19.30;53.00;;;;;;5013522;28;20191;-67
2023/04/21 03:20:49;;;;;;;1.95;1.85;;;19.30;52.90;;;;;;4997507;28;20222;-68
2023/04/21 03:23:15;;;;;;;2.00;1.80;;;19.30;52.90;;;;;;5018071;28;20220;-69
2023/04/21 03:25:42;;;;;;;2.00;1.80;;;19.30;52.90;;;;;;5012523;28;20209;-69
2023/04/21 03:28:08;;;;;;;1.80;1.70;;;19.30;52.90;;;;;;5002419;28;20190;-69
2023/04/21 03:30:34;;;;;;;1.75;1.65;;;19.30;52.90;;;;;;4979394;28;20189;-69
2023/04/21 03:32:59;;;;;;;2.00;1.90;;;19.30;52.90;;;;;;5014438;28;20211;-69
2023/04/21 03:35:26;;;;;;;2.03;1.83;;;19.30;52.90;;;;;;4999754;28;20740;-68
2023/04/21 03:37:51;;;;;;;1.80;1.70;;;19.30;52.90;;;;;;5002138;28;20192;-69
2023/04/21 03:40:17;;;;;;;1.80;1.70;;;19.30;52.90;;;;;;5012976;28;20173;-69
2023/04/21 03:42:43;;;;;;;1.90;1.80;;;19.30;52.90;;;;;;4994244;28;20189;-69
2023/04/21 03:45:09;;;;;;;1.90;1.80;;;19.30;52.90;;;;;;4999161;28;20250;-69
2023/04/21 03:47:35;;;;;;;2.63;1.80;;;19.30;52.90;;;;;;4978958;28;20197;-69
2023/04/21 03:50:05;;;;;;;2.20;2.00;;;19.30;52.90;;;;;;4992928;28;20185;-69
2023/04/21 03:52:32;;;;;;;2.15;2.05;;;19.30;52.90;;;;;;5004127;28;20215;-69
2023/04/21 03:54:58;;;;;;;1.70;1.60;;;19.30;52.90;;;;;;5036025;28;20184;-68
2023/04/21 03:57:23;;;;;;;2.22;2.03;;;19.30;53.50;;;;;;5013141;28;20239;-69
2023/04/21 03:59:49;;;;;;;1.60;1.50;;;19.30;52.90;;;;;;5002256;28;20188;-68
2023/04/21 04:02:15;;;;;;;1.90;1.80;;;19.30;52.80;;;;;;5004613;28;20188;-68
2023/04/21 04:04:41;;;;;;;2.08;1.42;;;19.30;52.90;;;;;;4992815;28;20188;-69
2023/04/21 04:07:07;;;;;;;1.77;1.67;;;19.30;52.90;;;;;;4992711;28;20213;-68
2023/04/21 04:09:33;;;;;;;1.80;1.70;;;19.30;52.90;;;;;;5000815;28;20210;-68
2023/04/21 04:11:59;;;;;;;1.67;1.58;;;19.30;52.90;;;;;;4984940;28;20723;-69
2023/04/21 04:14:25;;;;;;;1.65;1.55;;;19.30;52.90;;;;;;5005510;28;20189;-69
2023/04/21 04:16:50;;;;;;;1.90;1.80;;;19.30;52.80;;;;;;5025245;28;20213;-69
2023/04/21 04:19:16;;;;;;;1.48;1.38;;;19.30;52.90;;;;;;5007418;28;20191;-69
2023/04/21 04:21:42;;;;;;;1.65;1.55;;;19.30;52.90;;;;;;5010036;28;20183;-70
2023/04/21 04:24:09;;;;;;;1.58;1.30;;;19.30;52.80;;;;;;5014095;28;20616;-69
2023/04/21 04:26:37;;;;;;;1.95;1.85;;;19.30;52.90;;;;;;5011018;28;20234;-70
2023/04/21 04:29:04;;;;;;;1.80;1.70;;;19.30;52.90;;;;;;5020157;28;20214;-69
2023/04/21 04:31:31;;;;;;;2.00;1.75;;;19.20;52.80;;;;;;5011960;28;20192;-69
2023/04/21 04:33:57;;;;;;;1.58;1.48;;;19.30;52.90;;;;;;5004400;28;20232;-69
2023/04/21 04:36:23;;;;;;;1.48;1.38;;;19.30;52.90;;;;;;5009397;28;20687;-68
2023/04/21 04:38:50;;;;;;;1.80;1.70;;;19.30;52.90;;;;;;5022806;28;20207;-69
2023/04/21 04:41:16;;;;;;;1.70;1.60;;;19.30;52.90;;;;;;5000503;28;20188;-69
2023/04/21 04:43:42;;;;;;;2.13;1.92;;;19.30;52.90;;;;;;4995244;28;20564;-69
2023/04/21 04:46:11;;;;;;;1.67;1.58;;;19.30;52.90;;;;;;5008624;28;20220;-69
2023/04/21 04:48:37;;;;;;;1.58;1.48;;;19.20;52.80;;;;;;5018248;28;20196;-69
2023/04/21 04:51:04;;;;;;;1.90;1.80;;;19.30;52.90;;;;;;5004593;28;20235;-69
2023/04/21 04:53:31;;;;;;;1.75;1.65;;;19.30;52.90;;;;;;5016109;28;20199;-69
2023/04/21 04:55:58;;;;;;;1.67;1.58;;;19.30;52.90;;;;;;4995818;28;20307;-69
2023/04/21 04:58:24;;;;;;;1.58;1.48;;;19.30;52.90;;;;;;5008376;28;20219;-70
2023/04/21 05:00:50;;;;;;;1.60;1.50;;;19.30;52.90;;;;;;5013926;28;20191;-70
2023/04/21 05:03:16;;;;;;;1.77;1.67;;;19.30;52.90;;;;;;5003499;28;20191;-70
2023/04/21 05:05:41;;;;;;;1.60;1.50;;;19.30;52.90;;;;;;4989825;28;20217;-70
2023/04/21 05:08:07;;;;;;;1.60;1.50;;;19.30;52.80;;;;;;4975667;28;20200;-70
2023/04/21 05:10:33;;;;;;;1.92;1.50;;;19.30;52.90;;;;;;5008077;28;20219;-69
2023/04/21 05:12:59;;;;;;;2.55;1.45;;;19.30;52.90;;;;;;4996638;28;20208;-69
2023/04/21 05:15:25;;;;;;;1.75;1.65;;;19.30;52.80;;;;;;5003241;28;20210;-69
2023/04/21 05:17:50;;;;;;;1.42;1.33;;;19.30;52.80;;;;;;5014300;28;20651;-69
2023/04/21 05:20:16;;;;;;;1.90;1.70;;;19.30;52.90;;;;;;5030935;28;20211;-70
2023/04/21 05:22:42;;;;;;;2.03;1.83;;;19.30;52.90;;;;;;5029738;28;20191;-70
2023/04/21 05:25:13;;;;;;;1.77;1.67;;;19.30;52.90;;;;;;5006698;28;20187;-69
2023/04/21 05:27:39;;;;;;;2.13;1.75;;;19.30;52.90;;;;;;5029864;28;20191;-69
2023/04/21 05:30:06;;;;;;;1.65;1.55;;;19.30;52.90;;;;;;5013699;28;20190;-70
2023/04/21 05:32:32;;;;;;;1.65;1.55;;;19.30;53.00;;;;;;5027235;28;20207;-69
2023/04/21 05:34:59;;;;;;;1.50;1.40;;;19.30;52.90;;;;;;5030682;28;20184;-69
2023/04/21 05:37:25;;;;;;;1.60;1.50;;;19.30;52.90;;;;;;5006429;28;20270;-70
2023/04/21 05:39:51;;;;;;;1.80;1.70;;;19.30;52.90;;;;;;5022579;28;20219;-69
2023/04/21 05:42:17;;;;;;;1.85;1.75;;;19.30;52.90;;;;;;5025640;28;20220;-69
2023/04/21 05:44:43;;;;;;;1.42;1.33;;;19.30;52.90;;;;;;5012484;28;20184;-68
2023/04/21 05:47:08;;;;;;;1.63;1.52;;;19.30;53.00;;;;;;5022533;28;20271;-68
2023/04/21 05:49:34;;;;;;;2.28;1.40;;;19.30;53.00;;;;;;5013936;28;20239;-69
2023/04/21 05:52:00;;;;;;;1.40;1.30;;;19.30;52.90;;;;;;5014120;28;20229;-70
2023/04/21 05:54:25;;;;;;;2.03;1.88;;;19.30;52.90;;;;;;5030561;28;20221;-70
2023/04/21 05:56:51;;;;;;;1.90;1.80;;;19.30;52.90;;;;;;5025381;28;20218;-69
2023/04/21 05:59:17;;;;;;;1.75;1.42;;;19.30;52.90;;;;;;5016799;28;20222;-70
2023/04/21 06:01:43;;;;;;;1.60;1.50;;;19.30;52.90;;;;;;5014150;28;20230;-69
2023/04/21 06:04:09;;;;;;;1.42;1.33;;;19.30;52.90;;;;;;5025562;28;20192;-69
2023/04/21 06:06:34;;;;;;;1.60;1.50;;;19.30;52.90;;;;;;5010593;28;20214;-70
2023/04/21 06:09:00;;;;;;;1.60;1.50;;;19.30;52.90;;;;;;5021982;28;20244;-69
2023/04/21 06:11:26;;;;;;;1.63;1.52;;;19.30;52.80;;;;;;5030170;28;20219;-69
2023/04/21 06:13:53;;;;;;;1.73;1.63;;;19.30;52.90;;;;;;5027689;28;20246;-69
2023/04/21 06:16:19;;;;;;;1.70;1.40;;;19.30;52.80;;;;;;5002055;28;20745;-70
2023/04/21 06:18:45;;;;;;;1.92;1.40;;;19.30;52.80;;;;;;5011645;28;20188;-70
2023/04/21 06:21:10;;;;;;;1.40;1.30;;;19.30;53.40;;;;;;5023328;28;20187;-70
2023/04/21 06:23:36;;;;;;;1.70;1.60;;;19.30;52.80;;;;;;5038595;28;20183;-69
2023/04/21 06:26:06;;;;;;;1.50;1.40;;;19.40;52.90;;;;;;5022015;28;20295;-69
2023/04/21 06:28:34;;;;;;;1.60;1.45;;;19.30;52.80;;;;;;5022119;28;20237;-69
2023/04/21 06:31:02;;;;;;;2.03;1.60;;;19.30;52.80;;;;;;5030161;28;20202;-69
2023/04/21 06:33:28;;;;;;;1.50;1.40;;;19.30;52.80;;;;;;5024013;28;20212;-69
2023/04/21 06:35:54;;;;;;;1.40;1.30;;;19.30;52.80;;;;;;5023841;28;20208;-69
2023/04/21 06:38:20;;;;;;;1.50;1.33;;;19.30;52.90;;;;;;5034169;28;20183;-69
2023/04/21 06:40:46;;;;;;;1.50;1.40;;;19.30;52.90;;;;;;5034034;28;20199;-70
2023/04/21 06:43:12;;;;;;;1.35;1.30;;;19.30;52.90;;;;;;5002467;28;20195;-69
2023/04/21 06:45:38;;;;;;;1.50;1.40;;;19.30;52.90;;;;;;5025160;28;20215;-69
2023/04/21 06:48:04;;;;;;;1.52;1.40;;;19.40;53.00;;;;;;5005470;28;20184;-70
2023/04/21 06:50:30;;;;;;;1.48;1.38;;;19.30;52.90;;;;;;5022497;28;20183;-69
2023/04/21 06:52:56;;;;;;;1.85;1.50;;;19.30;52.90;;;;;;5033175;28;20246;-70
2023/04/21 06:55:21;;;;;;;1.65;1.42;;;19.30;52.90;;;;;;5027545;28;20219;-69
2023/04/21 06:57:47;;;;;;;1.60;1.50;;;19.30;53.00;;;;;;5006843;28;20191;-69
2023/04/21 07:00:14;;;;;;;1.40;1.30;;;19.30;52.90;;;;;;5003893;28;20210;-69
2023/04/21 07:02:40;;;;;;;2.90;1.40;;;19.30;52.90;;;;;;5005827;28;20184;-69
2023/04/21 07:05:06;;;;;;;2.55;1.73;;;19.30;53.00;;;;;;5021433;28;20186;-69
2023/04/21 07:07:33;;;;;;;1.98;1.77;;;19.40;53.00;;;;;;5012723;28;20675;-69
2023/04/21 07:09:59;;;;;;;1.80;1.70;;;19.40;53.10;;;;;;5002735;28;20196;-69
2023/04/21 07:12:25;;;;;;;2.10;1.92;;;19.40;53.00;;;;;;5016444;28;20192;-69
2023/04/21 07:14:50;;;;;;;2.15;1.95;;;19.40;53.00;;;;;;5031113;28;20266;-69
2023/04/21 07:17:16;;;;;;;1.92;1.80;;;19.40;53.00;;;;;;5027029;28;20211;-70
2023/04/21 07:19:42;;;;;;;2.15;1.95;;;19.40;53.10;;;;;;5024086;28;20183;-69
2023/04/21 07:22:08;;;;;;;2.47;2.28;;;19.40;53.10;;;;;;5025612;28;20234;-69
2023/04/21 07:24:34;;;;;;;2.80;2.42;;;19.40;53.00;;;;;;5032784;28;20198;-70
2023/04/21 07:27:01;;;;;;;2.30;2.10;;;19.40;53.00;;;;;;5032758;28;20213;-69
2023/04/21 07:29:27;;;;;;;2.47;2.25;;;19.40;53.00;;;;;;5016571;28;20191;-69
2023/04/21 07:31:55;;;;;;;2.60;2.40;;;19.50;53.10;;;;;;5030702;28;20273;-69
2023/04/21 07:34:20;;;;;;;1.80;1.70;;;19.50;53.00;;;;;;5016425;28;20195;-70
2023/04/21 07:36:46;;;;;;;2.65;2.13;;;19.50;53.10;;;;;;5016197;28;20755;-69
2023/04/21 07:39:12;;;;;;;2.50;2.30;;;19.50;53.10;;;;;;5034019;28;20175;-70
2023/04/21 07:41:38;;;;;;;2.95;2.60;;;19.50;53.10;;;;;;5033050;28;20183;-70
2023/04/21 07:44:04;;;;;;;2.47;2.22;;;19.60;53.00;;;;;;5008200;28;20207;-70
2023/04/21 07:46:30;;;;;;;2.38;2.05;;;19.60;53.00;;;;;;5033044;28;20208;-69
2023/04/21 07:48:58;;;;;;;2.60;2.03;;;19.50;53.00;;;;;;5012306;28;20260;-69
2023/04/21 07:51:26;;;;;;;2.85;2.15;;;19.60;53.10;;;;;;5016168;28;20290;-69
2023/04/21 07:53:53;;;;;;;2.60;2.05;;;19.60;53.10;;;;;;5048993;28;20206;-69
2023/04/21 07:56:19;;;;;;;2.17;2.00;;;19.60;53.10;;;;;;5025706;28;20199;-69
2023/04/21 07:58:45;;;;;;;2.10;2.00;;;19.60;53.10;;;;;;5023672;28;20188;-69
2023/04/21 08:01:11;;;;;;;2.38;2.17;;;19.60;53.20;;;;;;5009788;28;20182;-69
2023/04/21 08:03:36;;;;;;;2.75;1.85;;;19.60;53.10;;;;;;5032495;28;20199;-70
2023/04/21 08:06:02;;;;;;;2.78;2.50;;;19.60;53.10;;;;;;5029754;28;20307;-69
2023/04/21 08:08:28;;;;;;;2.42;2.22;;;19.60;53.10;;;;;;5028283;28;20218;-70
2023/04/21 08:10:54;;;;;;;2.60;2.40;;;19.60;53.20;;;;;;5013313;28;20245;-69
2023/04/21 08:13:23;;;;;;;2.30;2.10;;;19.60;53.20;;;;;;5017512;28;20226;-70
2023/04/21 08:15:53;;;;;;;2.58;2.15;;;19.60;53.10;;;;;;5023989;28;20309;-69
2023/04/21 08:18:19;;;;;;;2.28;2.08;;;19.60;53.20;;;;;;5032118;28;20191;-69
2023/04/21 08:20:46;;;;;;;2.38;2.17;;;19.60;53.20;;;;;;5006823;28;20179;-69
2023/04/21 08:23:13;;;;;;;2.83;2.60;;;19.60;53.10;;;;;;5015380;28;20277;-69
2023/04/21 08:25:39;;;;;;;2.40;2.20;;;19.60;53.20;;;;;;5024055;28;20278;-70
2023/04/21 08:28:05;;;;;;;2.30;2.10;;;19.60;53.10;;;;;;5015188;28;20187;-70
2023/04/21 08:30:31;;;;;;;1.95;1.85;;;19.60;53.10;;;;;;5007522;28;20187;-69
2023/04/21 08:32:57;;;;;;;2.75;2.55;;;19.60;53.10;;;;;;5046173;28;20423;-69
2023/04/21 08:35:23;;;;;;;3.10;2.80;;;19.60;53.10;;;;;;5001512;28;20200;-69
2023/04/21 08:37:49;;;;;;;4.15;2.55;;;19.70;53.20;;;;;;5040098;28;20208;-69
2023/04/21 08:40:15;;;;;;;2.83;2.63;;;19.70;53.20;;;;;;5020332;28;20219;-69
2023/04/21 08:42:41;;;;;;;2.60;2.40;;;19.70;53.20;;;;;;5020287;28;20210;-70
2023/04/21 08:45:08;;;;;;;2.97;2.60;;;19.80;53.20;;;;;;5031688;28;20179;-70
2023/04/21 08:47:38;;;;;;;2.95;2.60;;;19.80;53.20;;;;;;5011252;28;20206;-70
2023/04/21 08:50:11;;;;;;;2.50;2.30;;;19.80;53.20;;;;;;5020097;28;20192;-70
2023/04/21 08:52:37;;;;;;;2.78;2.58;;;19.80;53.20;;;;;;5014750;28;20644;-69
2023/04/21 08:55:06;;;;;;;2.67;2.47;;;19.80;53.20;;;;;;5006914;28;20178;-69
2023/04/21 08:57:32;;;;;;;2.70;2.50;;;19.80;53.30;;;;;;5032251;28;20274;-70
2023/04/21 08:59:58;;;;;;;2.60;2.40;;;19.80;53.20;;;;;;4996494;28;20191;-69
2023/04/21 09:02:24;;;;;;;2.95;2.40;;;19.80;53.20;;;;;;5014681;28;20184;-69
2023/04/21 09:04:51;;;;;;;2.55;2.35;;;19.80;53.20;;;;;;5038642;28;20218;-70
2023/04/21 09:07:33;;;;;;;2.90;2.70;;;19.80;53.20;;;;;;5023930;28;20210;-68
2023/04/21 09:09:59;;;;;;;2.60;2.40;;;19.80;53.20;;;;;;5030987;28;20194;-70
2023/04/21 09:12:26;;;;;;;2.53;2.33;;;19.90;53.30;;;;;;5047555;28;20218;-70
2023/04/21 09:14:52;;;;;;;3.17;2.90;;;19.90;53.20;;;;;;5031219;28;20203;-70
2023/04/21 09:17:26;;;;;;;2.70;2.50;;;19.90;53.20;;;;;;5019599;28;20215;-70
2023/04/21 09:19:51;;;;;;;3.53;3.22;;;19.80;53.20;;;;;;5028340;28;20241;-70
2023/04/21 09:22:17;;;;;;;3.22;2.92;;;19.90;53.20;;;;;;5009900;28;20179;-68
2023/04/21 09:24:48;;;;;;;2.95;2.75;;;19.90;53.20;;;;;;5039289;28;20679;-70
2023/04/21 09:27:15;;;;;;;3.05;2.75;;;19.90;53.30;;;;;;5011718;28;20674;-69
2023/04/21 09:29:47;;;;;;;2.83;2.63;;;19.90;53.30;;;;;;5011398;28;20180;-69
2023/04/21 09:32:17;;;;;;;2.90;2.70;;;19.90;53.30;;;;;;5015392;28;20194;-69
2023/04/21 09:34:43;;;;;;;3.10;2.90;;;19.90;53.20;;;;;;4999859;28;20188;-70
2023/04/21 09:37:13;;;;;;;3.20;2.90;;;19.90;53.30;;;;;;5023301;28;20199;-70
2023/04/21 09:39:44;;;;;;;3.10;2.83;;;19.90;53.30;;;;;;5022592;28;20178;-69
2023/04/21 09:42:10;;;;;;;2.88;2.67;;;19.90;53.30;;;;;;5002882;28;20196;-70
2023/04/21 09:44:37;;;;;;;3.10;2.80;;;19.90;53.30;;;;;;5019125;28;20188;-70
2023/04/21 09:47:04;;;;;;;3.20;2.92;;;19.90;53.30;;;;;;5013362;28;20315;-70
2023/04/21 09:49:34;;;;;;;3.00;2.80;;;19.90;53.30;;;;;;5000060;28;20253;-70
2023/04/21 09:52:01;;;;;;;3.22;2.90;;;19.90;53.30;;;;;;5022136;28;20198;-69
2023/04/21 09:54:33;;;;;;;2.90;2.70;;;19.90;53.40;;;;;;5008469;28;20208;-69
2023/04/21 09:57:02;;;;;;;3.50;3.20;;;19.90;53.40;;;;;;5003933;28;20211;-70
2023/04/21 09:59:36;;;;;;;3.30;2.97;;;19.90;53.40;;;;;;5017230;28;20196;-70
2023/04/21 10:02:07;;;;;;;3.08;2.78;;;19.90;53.40;;;;;;5018871;28;20182;-70
2023/04/21 10:04:35;;;;;;;2.95;2.75;;;19.90;53.40;;;;;;5016953;28;20194;-69
2023/04/21 10:07:02;;;;;;;3.13;2.83;;;19.90;53.40;;;;;;5039021;28;20199;-70
2023/04/21 10:09:39;;;;;;;2.92;2.72;;;19.90;53.40;;;;;;5043170;28;20196;-70
2023/04/21 10:12:06;;;;;;;3.20;2.90;;;19.90;53.40;;;;;;5033346;28;20194;-70
2023/04/21 10:14:32;;;;;;;3.25;2.95;;;19.90;53.40;;;;;;5025968;28;20245;-69
2023/04/21 10:17:08;;;;;;;2.95;2.65;;;19.90;53.40;;;;;;5008271;28;20219;-70
2023/04/21 10:19:39;;;;;;;2.92;2.72;;;19.90;53.40;;;;;;4998765;28;20232;-69
2023/04/21 10:22:09;;;;;;;3.45;3.15;;;19.90;53.40;;;;;;5014811;28;20192;-69
2023/04/21 10:24:41;;;;;;;2.80;2.60;;;19.90;53.40;;;;;;5031022;28;20238;-70
2023/04/21 10:27:11;;;;;;;2.95;2.75;;;19.90;53.40;;;;;;5021963;28;20224;-70
2023/04/21 10:29:37;;;;;;;2.67;2.47;;;19.90;53.40;;;;;;5014766;28;20670;-69
2023/04/21 10:32:04;;;;;;;2.70;2.50;;;19.90;53.40;;;;;;5030830;28;20203;-69
2023/04/21 10:34:37;;;;;;;3.10;2.83;;;19.90;53.50;;;;;;4994709;28;20287;-69
2023/04/21 10:37:03;;;;;;;2.95;2.75;;;19.90;53.50;;;;;;5014418;28;20200;-70
2023/04/21 10:39:50;;;;;;;2.78;2.58;;;19.90;53.50;;;;;;4998002;28;20183;-69
2023/04/21 10:42:17;;;;;;;2.75;2.55;;;19.90;53.50;;;;;;5022365;28;20180;-69
2023/04/21 10:44:44;;;;;;;3.42;3.03;;;19.90;53.50;;;;;;4991061;28;20209;-70
2023/04/21 10:47:10;;;;;;;2.83;2.63;;;19.90;53.60;;;;;;5015885;28;20231;-69
2023/04/21 10:49:39;;;;;;;3.70;3.40;;;19.90;53.60;;;;;;5002713;28;20278;-69
2023/04/21 10:52:08;;;;;;;3.60;3.28;;;19.90;53.60;;;;;;5012329;28;20234;-70
2023/04/21 10:54:45;;;;;;;4.15;3.78;;;19.90;53.60;;;;;;5012633;28;20219;-69
2023/04/21 10:57:18;;;;;;;4.30;3.90;;;19.90;53.60;;;;;;5014086;28;20226;-70
2023/04/21 10:59:47;;;;;;;5.28;4.25;;;19.90;53.60;;;;;;5006344;28;20176;-69
2023/04/21 11:02:17;;;;;;;5.18;4.68;;;19.90;53.60;;;;;;4997372;28;20180;-70
2023/04/21 11:04:46;;;;;;;5.38;4.70;;;19.90;53.70;;;;;;5013822;28;20190;-70
2023/04/21 11:07:17;;;;;;;6.63;5.07;;;19.90;53.70;;;;;;5013622;28;20222;-70
2023/04/21 11:09:46;;;;;;;6.78;5.95;;;19.90;53.70;;;;;;4997422;28;20552;-68
2023/04/21 11:12:16;;;;;;;8.98;6.57;;;19.90;53.60;;;;;;5030031;28;20199;-70
2023/04/21 11:14:46;;;;;;;7.85;6.40;;;19.90;53.60;;;;;;5013566;28;20253;-70
2023/04/21 11:17:18;;;;;;;8.40;6.70;;;19.90;53.60;;;;;;5014750;28;20254;-70
2023/04/21 11:19:53;;;;;;;9.65;6.88;;;19.90;53.60;;;;;;5013458;28;20191;-70
2023/04/21 11:22:22;;;;;;;7.20;6.50;;;19.90;53.70;;;;;;5022211;28;20179;-70
2023/04/21 11:24:53;;;;;;;8.10;6.30;;;19.90;53.60;;;;;;5013253;28;20172;-70
2023/04/21 11:27:21;;;;;;;8.13;7.10;;;19.90;53.70;;;;;;5021436;28;20279;-70
2023/04/21 11:29:48;;;;;;;9.48;7.65;;;19.90;53.60;;;;;;4997202;28;20176;-70
2023/04/21 11:32:16;;;;;;;8.43;7.53;;;19.90;53.60;;;;;;4991396;28;20204;-70
2023/04/21 11:34:42;;;;;;;8.27;6.97;;;20.00;53.80;;;;;;5013003;28;20218;-70
2023/04/21 11:37:22;;;;;;;8.80;7.13;;;19.90;53.70;;;;;;5020614;28;20218;-69
2023/04/21 11:39:48;;;;;;;8.75;7.03;;;19.90;53.70;;;;;;5013387;28;20184;-67
2023/04/21 11:42:21;;;;;;;9.85;7.28;;;19.90;53.70;;;;;;4996648;28;20192;-69
2023/04/21 11:44:47;;;;;;;9.05;7.40;;;19.90;53.70;;;;;;5016125;28;20229;-70
2023/04/21 11:47:16;;;;;;;8.25;7.05;;;19.90;53.60;;;;;;5014784;28;20571;-70
2023/04/21 11:49:55;;;;;;;7.80;7.00;;;19.90;53.60;;;;;;5004475;28;20192;-70
2023/04/21 11:52:36;;;;;;;6.93;6.20;;;19.90;53.60;;;;;;5012646;28;20188;-70
2023/04/21 11:55:03;;;;;;;9.15;7.10;;;19.90;53.60;;;;;;5012772;28;20176;-70
2023/04/21 11:57:31;;;;;;;9.55;7.30;;;19.90;53.60;;;;;;5013033;28;20185;-69
2023/04/21 12:00:03;;;;;;;7.45;6.68;;;19.90;53.60;;;;;;5029202;28;20188;-68
2023/04/21 12:02:31;;;;;;;7.78;6.97;;;20.00;53.60;;;;;;5001055;28;20251;-70
2023/04/21 12:05:15;;;;;;;9.20;6.95;;;19.90;53.60;;;;;;4996381;28;20211;-70
2023/04/21 12:07:45;;;;;;;7.28;6.38;;;19.90;53.60;;;;;;5012714;28;20199;-69
2023/04/21 12:10:15;;;;;;;7.57;6.50;;;20.00;53.70;;;;;;5012437;28;20180;-70
2023/04/21 12:12:42;;;;;;;7.50;6.70;;;20.00;53.70;;;;;;5012207;28;20261;-69
2023/04/21 12:15:10;;;;;;;8.10;5.93;;;20.00;53.60;;;;;;4996219;28;20186;-70
2023/04/21 12:17:48;;;;;;;6.88;6.07;;;20.00;53.60;;;;;;5012618;28;20195;-70
2023/04/21 12:20:23;;;;;;;7.03;6.32;;;20.00;53.70;;;;;;5004905;28;20258;-70
2023/04/21 12:22:49;;;;;;;7.05;6.40;;;20.00;53.70;;;;;;5013435;28;20187;-69
2023/04/21 12:25:15;;;;;;;8.63;7.40;;;20.00;53.70;;;;;;5020356;28;20196;-69
2023/04/21 12:27:52;;;;;;;7.45;6.70;;;20.00;53.70;;;;;;5035050;28;20180;-69
2023/04/21 12:30:20;;;;;;;7.18;6.47;;;20.00;53.70;;;;;;5040579;28;20183;-69
2023/04/21 12:32:46;;;;;;;7.72;6.68;;;20.00;53.80;;;;;;5006217;28;20242;-70
2023/04/21 12:35:12;;;;;;;7.00;6.30;;;20.00;53.80;;;;;;5021283;28;20187;-69
2023/04/21 12:37:38;;;;;;;7.95;6.82;;;19.90;53.70;;;;;;5020172;28;20203;-70
2023/04/21 12:40:06;;;;;;;7.43;6.63;;;19.90;53.70;;;;;;5021235;28;20195;-69
2023/04/21 12:42:32;;;;;;;7.03;6.28;;;20.00;53.80;;;;;;5024569;28;20199;-70
2023/04/21 12:44:58;;;;;;;7.53;6.05;;;20.00;53.70;;;;;;5023537;28;20217;-70
2023/04/21 12:47:24;;;;;;;6.55;5.88;;;20.00;53.70;;;;;;5023217;28;20281;-70